sensor_id;sensor_type;location;lat;lon;timestamp;pressure;altitude;pressure_sealevel;temperature;humidity
70521;BME280;58442;52.716;23.560;2023-01-27T00:00:50;101880.46;;;1.45;72.09
70521;BME280;58442;52.716;23.560;2023-01-27T00:03:04;101879.39;;;1.46;72.12
70521;BME280;58442;52.716;23.560;2023-01-27T00:05:16;101867.88;;;1.46;72.11
70521;BME280;58442;52.716;23.560;2023-01-27T00:07:18;101866.81;;;1.47;72.09
70521;BME280;58442;52.716;23.560;2023-01-27T00:09:19;101875.91;;;1.46;72.06
70521;BME280;58442;52.716;23.560;2023-01-27T00:11:21;101860.91;;;1.45;72.04
70521;BME280;58442;52.716;23.560;2023-01-27T00:13:39;101867.07;;;1.45;72.02
70521;BME280;58442;52.716;23.560;2023-01-27T00:15:53;101866.27;;;1.45;72.05
70521;BME280;58442;52.716;23.560;2023-01-27T00:17:55;101864.63;;;1.44;72.08
70521;BME280;58442;52.716;23.560;2023-01-27T00:19:57;101867.07;;;1.45;72.01
70521;BME280;58442;52.716;23.560;2023-01-27T00:22:01;101865.46;;;1.44;72.02
70521;BME280;58442;52.716;23.560;2023-01-27T00:24:14;101869.18;;;1.43;72.06
70521;BME280;58442;52.716;23.560;2023-01-27T00:26:29;101863.02;;;1.43;72.05
70521;BME280;58442;52.716;23.560;2023-01-27T00:28:38;101866.76;;;1.42;72.05
70521;BME280;58442;52.716;23.560;2023-01-27T00:30:39;101874.00;;;1.41;72.11
70521;BME280;58442;52.716;23.560;2023-01-27T00:32:41;101872.38;;;1.40;72.15
70521;BME280;58442;52.716;23.560;2023-01-27T00:34:59;101870.25;;;1.42;72.12
70521;BME280;58442;52.716;23.560;2023-01-27T00:37:06;101872.93;;;1.42;72.12
70521;BME280;58442;52.716;23.560;2023-01-27T00:39:13;101877.21;;;1.43;72.08
70521;BME280;58442;52.716;23.560;2023-01-27T00:41:14;101871.86;;;1.43;72.06
70521;BME280;58442;52.716;23.560;2023-01-27T00:43:22;101877.48;;;1.42;72.10
70521;BME280;58442;52.716;23.560;2023-01-27T00:45:23;101876.66;;;1.41;72.16
70521;BME280;58442;52.716;23.560;2023-01-27T00:47:42;101875.88;;;1.41;72.18
70521;BME280;58442;52.716;23.560;2023-01-27T00:49:44;101881.49;;;1.39;72.22
70521;BME280;58442;52.716;23.560;2023-01-27T00:51:48;101882.29;;;1.40;72.28
70521;BME280;58442;52.716;23.560;2023-01-27T00:53:49;101882.56;;;1.38;72.32
70521;BME280;58442;52.716;23.560;2023-01-27T00:55:57;101881.49;;;1.39;72.30
70521;BME280;58442;52.716;23.560;2023-01-27T00:57:59;101880.41;;;1.40;72.28
70521;BME280;58442;52.716;23.560;2023-01-27T01:00:04;101878.81;;;1.39;72.29
70521;BME280;58442;52.716;23.560;2023-01-27T01:02:07;101878.81;;;1.39;72.32
70521;BME280;58442;52.716;23.560;2023-01-27T01:04:12;101881.49;;;1.39;72.28
70521;BME280;58442;52.716;23.560;2023-01-27T01:06:15;101872.65;;;1.39;72.30
70521;BME280;58442;52.716;23.560;2023-01-27T01:08:17;101866.73;;;1.36;72.39
70521;BME280;58442;52.716;23.560;2023-01-27T01:10:18;101871.84;;;1.38;72.41
70521;BME280;58442;52.716;23.560;2023-01-27T01:12:28;101870.77;;;1.39;72.34
70521;BME280;58442;52.716;23.560;2023-01-27T01:14:29;101863.80;;;1.38;72.38
70521;BME280;58442;52.716;23.560;2023-01-27T01:16:30;101868.37;;;1.38;72.42
70521;BME280;58442;52.716;23.560;2023-01-27T01:18:32;101872.34;;;1.35;72.50
70521;BME280;58442;52.716;23.560;2023-01-27T01:20:44;101868.60;;;1.36;72.55
70521;BME280;58442;52.716;23.560;2023-01-27T01:22:46;101864.85;;;1.37;72.29
70521;BME280;58442;52.716;23.560;2023-01-27T01:24:47;101866.23;;;1.40;72.44
70521;BME280;58442;52.716;23.560;2023-01-27T01:26:49;101869.71;;;1.40;72.43
70521;BME280;58442;52.716;23.560;2023-01-27T01:28:57;101869.97;;;1.39;72.45
70521;BME280;58442;52.716;23.560;2023-01-27T01:31:12;101869.16;;;1.38;72.48
70521;BME280;58442;52.716;23.560;2023-01-27T01:33:13;101866.49;;;1.38;72.47
70521;BME280;58442;52.716;23.560;2023-01-27T01:35:15;101868.09;;;1.39;72.44
70521;BME280;58442;52.716;23.560;2023-01-27T01:37:17;101860.06;;;1.39;72.44
70521;BME280;58442;52.716;23.560;2023-01-27T01:39:19;101862.48;;;1.41;72.38
70521;BME280;58442;52.716;23.560;2023-01-27T01:41:21;101864.09;;;1.42;72.36
70521;BME280;58442;52.716;23.560;2023-01-27T01:43:23;101865.96;;;1.41;72.32
70521;BME280;58442;52.716;23.560;2023-01-27T01:47:57;101869.18;;;1.43;72.18
70521;BME280;58442;52.716;23.560;2023-01-27T01:50:03;101871.32;;;1.41;72.23
70521;BME280;58442;52.716;23.560;2023-01-27T01:52:12;101865.96;;;1.41;72.20
70521;BME280;58442;52.716;23.560;2023-01-27T01:54:29;101865.96;;;1.41;72.21
70521;BME280;58442;52.716;23.560;2023-01-27T01:58:43;101870.77;;;1.39;72.25
70521;BME280;58442;52.716;23.560;2023-01-27T02:00:53;101868.09;;;1.39;72.20
70521;BME280;58442;52.716;23.560;2023-01-27T02:02:55;101878.81;;;1.39;72.21
70521;BME280;58442;52.716;23.560;2023-01-27T02:09:26;101856.27;;;1.35;72.38
70521;BME280;58442;52.716;23.560;2023-01-27T02:11:28;101861.63;;;1.35;72.41
70521;BME280;58442;52.716;23.560;2023-01-27T02:13:33;101855.47;;;1.34;72.47
70521;BME280;58442;52.716;23.560;2023-01-27T02:15:40;101856.81;;;1.37;72.43
70521;BME280;58442;52.716;23.560;2023-01-27T02:17:43;101854.97;;;1.38;72.38
70521;BME280;58442;52.716;23.560;2023-01-27T02:22:08;101852.30;;;1.38;72.38
70521;BME280;58442;52.716;23.560;2023-01-27T02:24:11;101854.14;;;1.37;72.42
70521;BME280;58442;52.716;23.560;2023-01-27T02:26:20;101856.81;;;1.37;72.42
70521;BME280;58442;52.716;23.560;2023-01-27T02:28:26;101857.34;;;1.34;72.53
70521;BME280;58442;52.716;23.560;2023-01-27T02:30:30;101853.59;;;1.35;72.75
70521;BME280;58442;52.716;23.560;2023-01-27T02:32:41;101843.95;;;1.34;72.59
70521;BME280;58442;52.716;23.560;2023-01-27T02:34:44;101847.44;;;1.34;72.57
70521;BME280;58442;52.716;23.560;2023-01-27T02:36:51;101855.47;;;1.34;72.59
70521;BME280;58442;52.716;23.560;2023-01-27T02:38:55;101846.09;;;1.32;72.72
70521;BME280;58442;52.716;23.560;2023-01-27T02:41:51;101851.72;;;1.35;72.60
70521;BME280;58442;52.716;23.560;2023-01-27T02:43:18;101856.81;;;1.37;72.60
70521;BME280;58442;52.716;23.560;2023-01-27T02:45:19;101849.61;;;1.38;72.62
70521;BME280;58442;52.716;23.560;2023-01-27T02:47:23;101858.19;;;1.40;72.55
70521;BME280;58442;52.716;23.560;2023-01-27T02:49:24;101848.28;;;1.40;72.53
70521;BME280;58442;52.716;23.560;2023-01-27T02:51:34;101852.56;;;1.41;72.43
70521;BME280;58442;52.716;23.560;2023-01-27T02:53:40;101854.17;;;1.42;72.41
70521;BME280;58442;52.716;23.560;2023-01-27T02:55:42;101860.60;;;1.41;72.36
70521;BME280;58442;52.716;23.560;2023-01-27T02:57:49;101865.96;;;1.41;72.30
70521;BME280;58442;52.716;23.560;2023-01-27T02:59:53;101864.35;;;1.40;72.24
70521;BME280;58442;52.716;23.560;2023-01-27T03:01:55;101863.80;;;1.38;72.28
70521;BME280;58442;52.716;23.560;2023-01-27T03:03:56;101862.43;;;1.35;72.38
70521;BME280;58442;52.716;23.560;2023-01-27T03:05:57;101862.70;;;1.34;72.44
70521;BME280;58442;52.716;23.560;2023-01-27T03:08:03;101866.45;;;1.33;72.55
70521;BME280;58442;52.716;23.560;2023-01-27T03:10:05;101868.59;;;1.31;72.66
70521;BME280;58442;52.716;23.560;2023-01-27T03:12:06;101866.45;;;1.33;72.64
70521;BME280;58442;52.716;23.560;2023-01-27T03:14:20;101880.64;;;1.33;72.62
70521;BME280;58442;52.716;23.560;2023-01-27T03:16:21;101875.29;;;1.33;72.62
70521;BME280;58442;52.716;23.560;2023-01-27T03:18:39;101873.41;;;1.34;72.60
70521;BME280;58442;52.716;23.560;2023-01-27T03:20:47;101876.63;;;1.36;72.60
70521;BME280;58442;52.716;23.560;2023-01-27T03:22:49;101868.60;;;1.36;72.57
70521;BME280;58442;52.716;23.560;2023-01-27T03:24:50;101872.09;;;1.36;72.54
70521;BME280;58442;52.716;23.560;2023-01-27T03:26:54;101865.38;;;1.34;72.69
70521;BME280;58442;52.716;23.560;2023-01-27T03:28:59;101865.92;;;1.36;72.55
70521;BME280;58442;52.716;23.560;2023-01-27T03:31:12;101863.24;;;1.36;72.50
70521;BME280;58442;52.716;23.560;2023-01-27T03:33:19;101863.24;;;1.36;72.52
70521;BME280;58442;52.716;23.560;2023-01-27T03:35:27;101880.91;;;1.37;72.53
70521;BME280;58442;52.716;23.560;2023-01-27T03:37:47;101867.79;;;1.35;72.48
70521;BME280;58442;52.716;23.560;2023-01-27T03:40:04;101872.88;;;1.32;72.54
70521;BME280;58442;52.716;23.560;2023-01-27T03:42:24;101875.81;;;1.30;72.67
70521;BME280;58442;52.716;23.560;2023-01-27T03:44:42;101869.89;;;1.28;72.68
70521;BME280;58442;52.716;23.560;2023-01-27T03:47:04;101867.73;;;1.25;72.72
70521;BME280;58442;52.716;23.560;2023-01-27T03:49:05;101876.58;;;1.26;72.86
70521;BME280;58442;52.716;23.560;2023-01-27T03:51:08;101878.45;;;1.25;72.87
70521;BME280;58442;52.716;23.560;2023-01-27T03:53:10;101880.86;;;1.27;72.87
70521;BME280;58442;52.716;23.560;2023-01-27T03:55:19;101876.58;;;1.26;72.92
70521;BME280;58442;52.716;23.560;2023-01-27T03:57:20;101881.93;;;1.26;72.97
70521;BME280;58442;52.716;23.560;2023-01-27T03:59:21;101881.66;;;1.27;72.91
70521;BME280;58442;52.716;23.560;2023-01-27T04:01:23;101887.32;;;1.31;72.81
70521;BME280;58442;52.716;23.560;2023-01-27T04:03:35;101882.78;;;1.31;72.72
70521;BME280;58442;52.716;23.560;2023-01-27T04:05:55;101883.58;;;1.32;72.70
70521;BME280;58442;52.716;23.560;2023-01-27T04:08:17;101891.62;;;1.32;72.70
70521;BME280;58442;52.716;23.560;2023-01-27T04:10:18;101880.91;;;1.32;72.66
70521;BME280;58442;52.716;23.560;2023-01-27T04:12:19;101888.94;;;1.32;72.61
70521;BME280;58442;52.716;23.560;2023-01-27T04:14:33;101890.81;;;1.31;72.51
70521;BME280;58442;52.716;23.560;2023-01-27T04:16:37;101895.10;;;1.32;72.58
70521;BME280;58442;52.716;23.560;2023-01-27T04:18:39;101888.94;;;1.32;72.57
70521;BME280;58442;52.716;23.560;2023-01-27T04:20:40;101883.58;;;1.32;72.55
70521;BME280;58442;52.716;23.560;2023-01-27T04:22:41;101888.94;;;1.32;72.47
70521;BME280;58442;52.716;23.560;2023-01-27T04:24:48;101886.26;;;1.32;72.48
70521;BME280;58442;52.716;23.560;2023-01-27T04:26:55;101886.26;;;1.32;72.51
70521;BME280;58442;52.716;23.560;2023-01-27T04:28:56;101891.62;;;1.32;72.53
70521;BME280;58442;52.716;23.560;2023-01-27T04:30:58;101889.74;;;1.32;72.55
70521;BME280;58442;52.716;23.560;2023-01-27T04:33:03;101885.69;;;1.30;72.60
70521;BME280;58442;52.716;23.560;2023-01-27T04:35:09;101885.69;;;1.30;72.61
70521;BME280;58442;52.716;23.560;2023-01-27T04:37:11;101884.88;;;1.29;72.66
70521;BME280;58442;52.716;23.560;2023-01-27T04:39:13;101888.36;;;1.30;72.68
70521;BME280;58442;52.716;23.560;2023-01-27T04:41:23;101887.32;;;1.31;72.65
70521;BME280;58442;52.716;23.560;2023-01-27T04:43:24;101888.36;;;1.30;72.65
70521;BME280;58442;52.716;23.560;2023-01-27T04:45:28;101886.21;;;1.27;72.63
70521;BME280;58442;52.716;23.560;2023-01-27T04:47:29;101889.16;;;1.25;72.67
70521;BME280;58442;52.716;23.560;2023-01-27T04:49:32;101889.96;;;1.26;72.69
70521;BME280;58442;52.716;23.560;2023-01-27T04:51:34;101889.96;;;1.26;72.56
70521;BME280;58442;52.716;23.560;2023-01-27T04:53:35;101885.67;;;1.25;72.60
70521;BME280;58442;52.716;23.560;2023-01-27T04:55:36;101894.77;;;1.24;72.54
70521;BME280;58442;52.716;23.560;2023-01-27T04:57:47;101894.77;;;1.24;72.55
70521;BME280;58442;52.716;23.560;2023-01-27T04:59:49;101886.16;;;1.22;72.49
70521;BME280;58442;52.716;23.560;2023-01-27T05:01:50;101889.91;;;1.21;72.50
70521;BME280;58442;52.716;23.560;2023-01-27T05:03:52;101890.98;;;1.20;72.59
70521;BME280;58442;52.716;23.560;2023-01-27T05:06:02;101894.46;;;1.20;72.49
70521;BME280;58442;52.716;23.560;2023-01-27T05:08:09;101901.69;;;1.20;72.55
70521;BME280;58442;52.716;23.560;2023-01-27T05:10:10;101907.05;;;1.20;72.52
70521;BME280;58442;52.716;23.560;2023-01-27T05:12:12;101911.59;;;1.19;72.53
70521;BME280;58442;52.716;23.560;2023-01-27T05:14:18;101903.55;;;1.19;72.55
70521;BME280;58442;52.716;23.560;2023-01-27T05:16:23;101902.76;;;1.19;72.53
70521;BME280;58442;52.716;23.560;2023-01-27T05:18:34;101909.17;;;1.18;72.47
70521;BME280;58442;52.716;23.560;2023-01-27T05:20:36;101914.53;;;1.18;72.48
70521;BME280;58442;52.716;23.560;2023-01-27T05:22:38;101914.53;;;1.18;72.52
70521;BME280;58442;52.716;23.560;2023-01-27T05:24:39;101916.41;;;1.17;72.49
70521;BME280;58442;52.716;23.560;2023-01-27T05:26:41;101920.92;;;1.17;72.47
70521;BME280;58442;52.716;23.560;2023-01-27T05:28:44;101923.61;;;1.17;72.48
70521;BME280;58442;52.716;23.560;2023-01-27T05:30:51;101922.80;;;1.16;72.46
70521;BME280;58442;52.716;23.560;2023-01-27T05:32:53;101920.92;;;1.17;72.41
70521;BME280;58442;52.716;23.560;2023-01-27T05:34:54;101930.83;;;1.16;72.49
70521;BME280;58442;52.716;23.560;2023-01-27T05:36:55;101933.27;;;1.18;72.46
70521;BME280;58442;52.716;23.560;2023-01-27T05:39:03;101938.05;;;1.16;72.52
70521;BME280;58442;52.716;23.560;2023-01-27T05:41:06;101931.09;;;1.15;72.61
70521;BME280;58442;52.716;23.560;2023-01-27T05:43:08;101940.73;;;1.16;72.63
70521;BME280;58442;52.716;23.560;2023-01-27T05:45:12;101933.77;;;1.15;72.69
70521;BME280;58442;52.716;23.560;2023-01-27T05:47:17;101940.99;;;1.14;72.74
70521;BME280;58442;52.716;23.560;2023-01-27T05:49:19;101945.28;;;1.15;72.77
70521;BME280;58442;52.716;23.560;2023-01-27T05:51:22;101956.80;;;1.16;72.75
70521;BME280;58442;52.716;23.560;2023-01-27T05:53:25;101955.73;;;1.17;72.78
70521;BME280;58442;52.716;23.560;2023-01-27T05:55:33;101954.70;;;1.18;72.78
70521;BME280;58442;52.716;23.560;2023-01-27T05:57:36;101959.47;;;1.16;72.78
70521;BME280;58442;52.716;23.560;2023-01-27T05:59:37;101961.92;;;1.17;72.78
70521;BME280;58442;52.716;23.560;2023-01-27T06:01:39;101961.34;;;1.15;72.80
70521;BME280;58442;52.716;23.560;2023-01-27T06:03:48;101967.51;;;1.16;72.83
70521;BME280;58442;52.716;23.560;2023-01-27T06:05:54;101960.28;;;1.16;72.85
70521;BME280;58442;52.716;23.560;2023-01-27T06:07:56;101957.06;;;1.14;72.88
70521;BME280;58442;52.716;23.560;2023-01-27T06:09:57;101957.86;;;1.15;72.91
70521;BME280;58442;52.716;23.560;2023-01-27T06:12:03;101957.06;;;1.14;72.99
70521;BME280;58442;52.716;23.560;2023-01-27T06:14:04;101956.80;;;1.16;72.99
70521;BME280;58442;52.716;23.560;2023-01-27T06:16:09;101957.38;;;1.18;72.89
70521;BME280;58442;52.716;23.560;2023-01-27T06:18:11;101960.86;;;1.18;72.85
70521;BME280;58442;52.716;23.560;2023-01-27T06:20:18;101967.02;;;1.19;72.78
70521;BME280;58442;52.716;23.560;2023-01-27T06:22:19;101975.05;;;1.19;72.79
70521;BME280;58442;52.716;23.560;2023-01-27T06:24:20;101978.79;;;1.18;72.78
70521;BME280;58442;52.716;23.560;2023-01-27T06:26:24;101981.70;;;1.16;72.84
70521;BME280;58442;52.716;23.560;2023-01-27T06:28:33;101979.02;;;1.16;72.77
70521;BME280;58442;52.716;23.560;2023-01-27T06:30:35;101974.73;;;1.15;72.73
70521;BME280;58442;52.716;23.560;2023-01-27T06:32:39;101976.05;;;1.13;72.81
70521;BME280;58442;52.716;23.560;2023-01-27T06:34:41;101973.38;;;1.13;72.84
70521;BME280;58442;52.716;23.560;2023-01-27T06:36:48;101976.86;;;1.13;72.84
70521;BME280;58442;52.716;23.560;2023-01-27T06:38:55;101985.70;;;1.14;72.84
70521;BME280;58442;52.716;23.560;2023-01-27T06:40:56;101980.61;;;1.12;72.70
70521;BME280;58442;52.716;23.560;2023-01-27T06:43:01;101980.05;;;1.10;72.97
70521;BME280;58442;52.716;23.560;2023-01-27T06:45:03;101974.45;;;1.12;73.00
70521;BME280;58442;52.716;23.560;2023-01-27T06:47:13;101982.21;;;1.13;73.03
70521;BME280;58442;52.716;23.560;2023-01-27T06:49:14;101983.57;;;1.16;73.02
70521;BME280;58442;52.716;23.560;2023-01-27T06:51:16;101987.86;;;1.17;72.94
70521;BME280;58442;52.716;23.560;2023-01-27T06:53:26;101988.93;;;1.16;72.88
70521;BME280;58442;52.716;23.560;2023-01-27T06:55:35;101991.59;;;1.16;72.93
70521;BME280;58442;52.716;23.560;2023-01-27T06:57:45;101995.88;;;1.17;72.96
70521;BME280;58442;52.716;23.560;2023-01-27T06:59:49;101989.50;;;1.18;72.92
70521;BME280;58442;52.716;23.560;2023-01-27T07:01:53;101980.40;;;1.19;72.94
70521;BME280;58442;52.716;23.560;2023-01-27T07:03:54;101986.30;;;1.21;72.94
70521;BME280;58442;52.716;23.560;2023-01-27T07:05:56;101989.52;;;1.23;72.84
70521;BME280;58442;52.716;23.560;2023-01-27T07:08:00;101984.17;;;1.23;72.76
70521;BME280;58442;52.716;23.560;2023-01-27T07:10:02;101982.30;;;1.23;72.78
70521;BME280;58442;52.716;23.560;2023-01-27T07:12:08;101987.66;;;1.23;72.84
70521;BME280;58442;52.716;23.560;2023-01-27T07:14:12;101982.07;;;1.25;72.85
70521;BME280;58442;52.716;23.560;2023-01-27T07:16:16;101982.35;;;1.28;72.78
70521;BME280;58442;52.716;23.560;2023-01-27T07:18:18;101990.13;;;1.30;72.73
70521;BME280;58442;52.716;23.560;2023-01-27T07:20:19;101982.93;;;1.30;72.74
70521;BME280;58442;52.716;23.560;2023-01-27T07:22:21;101989.90;;;1.31;72.73
70521;BME280;58442;52.716;23.560;2023-01-27T07:24:22;101988.57;;;1.34;72.67
70521;BME280;58442;52.716;23.560;2023-01-27T07:26:32;101986.44;;;1.36;72.51
70521;BME280;58442;52.716;23.560;2023-01-27T07:28:33;101982.69;;;1.37;72.49
70521;BME280;58442;52.716;23.560;2023-01-27T07:30:35;101984.34;;;1.38;72.51
70521;BME280;58442;52.716;23.560;2023-01-27T07:32:38;101986.76;;;1.40;72.46
70521;BME280;58442;52.716;23.560;2023-01-27T07:34:47;101987.03;;;1.43;72.41
70521;BME280;58442;52.716;23.560;2023-01-27T07:36:48;101982.48;;;1.44;72.33
70521;BME280;58442;52.716;23.560;2023-01-27T07:38:52;101979.58;;;1.45;72.37
70521;BME280;58442;52.716;23.560;2023-01-27T07:40:53;101985.48;;;1.47;72.36
70521;BME280;58442;52.716;23.560;2023-01-27T07:43:03;101984.41;;;1.48;72.25
70521;BME280;58442;52.716;23.560;2023-01-27T07:45:05;101986.81;;;1.50;72.14
70521;BME280;58442;52.716;23.560;2023-01-27T07:47:07;101979.59;;;1.50;72.18
70521;BME280;58442;52.716;23.560;2023-01-27T07:49:12;101977.48;;;1.52;72.15
70521;BME280;58442;52.716;23.560;2023-01-27T07:51:24;101978.84;;;1.55;72.08
70521;BME280;58442;52.716;23.560;2023-01-27T07:53:25;101986.62;;;1.56;72.01
70521;BME280;58442;52.716;23.560;2023-01-27T07:55:27;101979.15;;;1.58;71.95
70521;BME280;58442;52.716;23.560;2023-01-27T07:57:29;101977.01;;;1.60;71.85
70521;BME280;58442;52.716;23.560;2023-01-27T07:59:34;101976.48;;;1.63;71.83
70521;BME280;58442;52.716;23.560;2023-01-27T08:01:35;101975.41;;;1.64;71.82
70521;BME280;58442;52.716;23.560;2023-01-27T08:03:40;101977.59;;;1.68;71.82
70521;BME280;58442;52.716;23.560;2023-01-27T08:05:42;101976.53;;;1.69;71.83
70521;BME280;58442;52.716;23.560;2023-01-27T08:07:50;101978.71;;;1.72;71.79
70521;BME280;58442;52.716;23.560;2023-01-27T08:09:51;101976.84;;;1.72;71.76
70521;BME280;58442;52.716;23.560;2023-01-27T08:11:56;101989.44;;;1.72;71.73
70521;BME280;58442;52.716;23.560;2023-01-27T08:13:58;101990.23;;;1.72;71.82
70521;BME280;58442;52.716;23.560;2023-01-27T08:16:06;101983.80;;;1.73;71.84
70521;BME280;58442;52.716;23.560;2023-01-27T08:18:08;101978.18;;;1.75;71.82
70521;BME280;58442;52.716;23.560;2023-01-27T08:20:11;101986.77;;;1.77;71.80
70521;BME280;58442;52.716;23.560;2023-01-27T08:22:12;101989.45;;;1.77;71.71
70521;BME280;58442;52.716;23.560;2023-01-27T08:24:25;101991.63;;;1.80;71.64
70521;BME280;58442;52.716;23.560;2023-01-27T08:26:29;101987.57;;;1.77;71.64
70521;BME280;58442;52.716;23.560;2023-01-27T08:28:32;101996.68;;;1.76;71.71
70521;BME280;58442;52.716;23.560;2023-01-27T08:30:39;101995.88;;;1.76;71.84
70521;BME280;58442;52.716;23.560;2023-01-27T08:32:40;101999.09;;;1.78;71.85
70521;BME280;58442;52.716;23.560;2023-01-27T08:34:41;101987.07;;;1.80;71.79
70521;BME280;58442;52.716;23.560;2023-01-27T08:36:45;101997.53;;;1.82;71.79
70521;BME280;58442;52.716;23.560;2023-01-27T08:38:47;101997.84;;;1.85;71.75
70521;BME280;58442;52.716;23.560;2023-01-27T08:40:50;101993.82;;;1.88;71.63
70521;BME280;58442;52.716;23.560;2023-01-27T08:42:56;102000.80;;;1.89;71.55
70521;BME280;58442;52.716;23.560;2023-01-27T08:44:58;101996.24;;;1.89;71.46
70521;BME280;58442;52.716;23.560;2023-01-27T08:47:00;101999.98;;;1.88;71.53
70521;BME280;58442;52.716;23.560;2023-01-27T08:49:05;102002.41;;;1.90;71.56
70521;BME280;58442;52.716;23.560;2023-01-27T08:51:09;102003.78;;;1.93;71.53
70521;BME280;58442;52.716;23.560;2023-01-27T08:53:12;102006.21;;;1.94;71.51
70521;BME280;58442;52.716;23.560;2023-01-27T08:55:16;102001.38;;;1.96;71.47
70521;BME280;58442;52.716;23.560;2023-01-27T08:57:20;102006.48;;;1.98;71.42
70521;BME280;58442;52.716;23.560;2023-01-27T08:59:21;102008.09;;;1.99;71.46
70521;BME280;58442;52.716;23.560;2023-01-27T09:01:23;102004.11;;;2.01;71.45
70521;BME280;58442;52.716;23.560;2023-01-27T09:03:24;102008.40;;;2.02;71.42
70521;BME280;58442;52.716;23.560;2023-01-27T09:05:36;102007.33;;;2.03;71.47
70521;BME280;58442;52.716;23.560;2023-01-27T09:07:37;102015.11;;;2.05;71.55
70521;BME280;58442;52.716;23.560;2023-01-27T09:09:39;102003.88;;;2.08;71.54
70521;BME280;58442;52.716;23.560;2023-01-27T09:11:42;102013.00;;;2.12;71.44
70521;BME280;58442;52.716;23.560;2023-01-27T09:13:55;102016.80;;;2.16;71.33
70521;BME280;58442;52.716;23.560;2023-01-27T09:15:56;102015.45;;;2.18;71.29
70521;BME280;58442;52.716;23.560;2023-01-27T09:18:00;102017.06;;;2.19;71.31
70521;BME280;58442;52.716;23.560;2023-01-27T09:20:01;102020.33;;;2.22;71.36
70521;BME280;58442;52.716;23.560;2023-01-27T09:22:07;102018.18;;;2.24;71.31
70521;BME280;58442;52.716;23.560;2023-01-27T09:24:09;102027.56;;;2.26;71.31
70521;BME280;58442;52.716;23.560;2023-01-27T09:26:13;102024.12;;;2.31;71.30
70521;BME280;58442;52.716;23.560;2023-01-27T09:28:14;102019.29;;;2.33;71.17
70521;BME280;58442;52.716;23.560;2023-01-27T09:30:21;102018.25;;;2.34;71.16
70521;BME280;58442;52.716;23.560;2023-01-27T09:32:25;102019.59;;;2.36;71.15
70521;BME280;58442;52.716;23.560;2023-01-27T09:34:26;102015.58;;;2.39;71.07
70521;BME280;58442;52.716;23.560;2023-01-27T09:36:28;102016.14;;;2.41;71.04
70521;BME280;58442;52.716;23.560;2023-01-27T09:57:45;102024.93;;;2.31;71.13
70521;BME280;58442;52.716;23.560;2023-01-27T10:02:22;102023.05;;;2.32;71.17
70521;BME280;58442;52.716;23.560;2023-01-27T10:09:24;102013.92;;;2.33;71.30
70521;BME280;58442;52.716;23.560;2023-01-27T10:23:32;102019.44;;;2.58;70.73
70521;BME280;58442;52.716;23.560;2023-01-27T10:28:14;102020.26;;;2.64;70.61
70521;BME280;58442;52.716;23.560;2023-01-27T10:30:33;102026.98;;;2.66;70.55
70521;BME280;58442;52.716;23.560;2023-01-27T10:32:45;102028.58;;;2.67;70.50
70521;BME280;58442;52.716;23.560;2023-01-27T10:37:32;102037.47;;;2.68;70.60
70521;BME280;58442;52.716;23.560;2023-01-27T10:46:33;102045.79;;;2.71;70.50
70521;BME280;58442;52.716;23.560;2023-01-27T10:48:47;102040.16;;;2.68;70.70
70521;BME280;58442;52.716;23.560;2023-01-27T10:50:59;102032.91;;;2.68;70.72
70521;BME280;58442;52.716;23.560;2023-01-27T10:53:15;102036.09;;;2.65;70.77
70521;BME280;58442;52.716;23.560;2023-01-27T11:00:15;102037.17;;;2.64;70.85
70521;BME280;58442;52.716;23.560;2023-01-27T11:04:40;102028.88;;;2.71;70.69
70521;BME280;58442;52.716;23.560;2023-01-27T11:06:47;102024.84;;;2.73;70.53
70521;BME280;58442;52.716;23.560;2023-01-27T11:11:07;102016.02;;;2.78;70.48
70521;BME280;58442;52.716;23.560;2023-01-27T11:13:21;102015.75;;;2.80;70.47
70521;BME280;58442;52.716;23.560;2023-01-27T11:15:29;102021.69;;;2.82;70.43
70521;BME280;58442;52.716;23.560;2023-01-27T11:17:43;102024.10;;;2.83;70.30
70521;BME280;58442;52.716;23.560;2023-01-27T11:22:01;102020.61;;;2.83;70.31
70521;BME280;58442;52.716;23.560;2023-01-27T11:26:38;102020.88;;;2.86;70.34
70521;BME280;58442;52.716;23.560;2023-01-27T11:28:47;102018.75;;;2.88;70.27
70521;BME280;58442;52.716;23.560;2023-01-27T11:31:00;102012.84;;;2.91;70.30
70521;BME280;58442;52.716;23.560;2023-01-27T11:33:16;102014.45;;;2.92;70.25
70521;BME280;58442;52.716;23.560;2023-01-27T11:35:16;102017.14;;;2.92;70.19
70521;BME280;58442;52.716;23.560;2023-01-27T11:37:29;102009.35;;;2.91;70.18
70521;BME280;58442;52.716;23.560;2023-01-27T11:39:31;102011.24;;;2.90;70.21
70521;BME280;58442;52.716;23.560;2023-01-27T11:41:37;102007.19;;;2.88;70.14
70521;BME280;58442;52.716;23.560;2023-01-27T11:43:42;102009.34;;;2.86;70.12
70521;BME280;58442;52.716;23.560;2023-01-27T11:45:44;102011.48;;;2.84;70.24
70521;BME280;58442;52.716;23.560;2023-01-27T11:47:54;102008.27;;;2.82;70.27
70521;BME280;58442;52.716;23.560;2023-01-27T11:50:13;102008.27;;;2.82;70.37
70521;BME280;58442;52.716;23.560;2023-01-27T11:52:30;102008.80;;;2.84;70.35
70521;BME280;58442;52.716;23.560;2023-01-27T11:54:41;102005.31;;;2.83;70.14
70521;BME280;58442;52.716;23.560;2023-01-27T11:56:47;102012.55;;;2.88;70.28
70521;BME280;58442;52.716;23.560;2023-01-27T11:59:00;102015.24;;;2.88;70.25
70521;BME280;58442;52.716;23.560;2023-01-27T12:01:10;101999.96;;;2.88;70.40
70521;BME280;58442;52.716;23.560;2023-01-27T12:03:25;102008.82;;;2.89;70.41
70521;BME280;58442;52.716;23.560;2023-01-27T12:05:41;102008.52;;;2.85;70.45
70521;BME280;58442;52.716;23.560;2023-01-27T12:08:00;102010.38;;;2.80;70.71
70521;BME280;58442;52.716;23.560;2023-01-27T12:10:02;102002.89;;;2.82;70.76
70521;BME280;58442;52.716;23.560;2023-01-27T12:14:22;102004.54;;;2.98;70.62